Time;durP1;ratioP1;P1;durP2;ratioP2;P2;SDS_P1;SDS_P2;PMS_P1;PMS_P2;Temp;Humidity;BMP_temperature;BMP_pressure;BME280_temperature;BME280_humidity;BME280_pressure;Samples;Min_cycle;Max_cycle;Signal;HPM_P1;HPM_P2
2022/07/16 00:02:50;;;;;;;59.55;50.08;;;24.40;50.10;;;;;;4995515;27;92666;-60
2022/07/16 00:05:17;;;;;;;59.00;49.63;;;24.40;50.20;;;;;;4996354;27;90795;-60
2022/07/16 00:07:42;;;;;;;59.28;49.90;;;24.40;50.20;;;;;;4986460;27;90482;-60
2022/07/16 00:10:08;;;;;;;59.67;49.75;;;24.40;50.30;;;;;;4996973;27;90804;-60
2022/07/16 00:12:34;;;;;;;59.80;49.65;;;24.40;50.40;;;;;;4994449;27;90466;-60
2022/07/16 00:15:02;;;;;;;59.75;50.15;;;24.40;50.50;;;;;;5008183;27;90930;-59
2022/07/16 00:17:27;;;;;;;59.28;49.85;;;24.40;50.50;;;;;;4997949;27;93244;-60
2022/07/16 00:19:53;;;;;;;59.83;49.92;;;24.30;50.50;;;;;;5002933;27;91765;-60
2022/07/16 00:22:18;;;;;;;59.92;50.10;;;24.30;50.50;;;;;;4998184;27;91102;-60
2022/07/16 00:24:44;;;;;;;58.80;49.55;;;24.30;50.60;;;;;;5000064;27;92892;-60
2022/07/16 00:27:10;;;;;;;60.17;49.75;;;24.30;50.70;;;;;;4998217;27;90630;-60
2022/07/16 00:29:35;;;;;;;59.47;49.90;;;24.30;50.70;;;;;;5005293;27;90138;-60
2022/07/16 00:32:01;;;;;;;59.80;49.83;;;24.20;50.80;;;;;;5007440;27;91306;-61
2022/07/16 00:34:27;;;;;;;59.97;49.88;;;24.20;50.70;;;;;;5011744;27;91140;-60
2022/07/16 00:36:52;;;;;;;60.33;49.90;;;24.20;50.80;;;;;;5011467;27;90794;-59
2022/07/16 00:39:18;;;;;;;59.65;49.85;;;24.20;50.80;;;;;;5005266;27;92061;-60
2022/07/16 00:41:46;;;;;;;59.55;49.55;;;24.20;50.80;;;;;;5001868;27;91631;-59
2022/07/16 00:44:15;;;;;;;59.95;49.85;;;24.20;51.00;;;;;;5006052;27;95156;-60
2022/07/16 00:46:41;;;;;;;59.38;49.70;;;24.20;51.00;;;;;;5002292;27;93791;-60
2022/07/16 00:49:08;;;;;;;59.67;49.72;;;24.20;51.00;;;;;;4997645;27;91732;-60
2022/07/16 00:51:35;;;;;;;59.83;49.83;;;24.20;51.00;;;;;;5008877;27;91752;-59
2022/07/16 00:54:02;;;;;;;59.45;49.95;;;24.20;51.00;;;;;;4987194;27;94937;-59
2022/07/16 00:56:27;;;;;;;59.03;49.72;;;24.20;50.90;;;;;;5004829;27;91445;-60
2022/07/16 00:58:54;;;;;;;60.42;49.95;;;24.20;50.90;;;;;;4999498;27;91660;-59
2022/07/16 01:01:21;;;;;;;60.50;49.67;;;24.20;50.90;;;;;;5003858;27;89903;-60
2022/07/16 01:03:47;;;;;;;61.47;49.65;;;24.20;50.90;;;;;;4991562;27;90722;-60
2022/07/16 01:06:14;;;;;;;59.13;49.88;;;24.20;50.90;;;;;;5003600;27;91055;-60
2022/07/16 01:08:46;;;;;;;59.15;49.63;;;24.20;50.90;;;;;;5012160;27;91997;-60
2022/07/16 01:11:14;;;;;;;59.25;49.65;;;24.20;50.90;;;;;;5007874;27;90368;-59
2022/07/16 01:13:42;;;;;;;60.25;49.95;;;24.20;51.00;;;;;;4995462;27;90306;-60
2022/07/16 01:16:09;;;;;;;59.15;49.78;;;24.20;51.00;;;;;;4991952;27;95226;-59
2022/07/16 01:18:39;;;;;;;58.90;49.75;;;24.20;51.00;;;;;;5003337;27;90299;-60
2022/07/16 01:21:05;;;;;;;58.53;49.53;;;24.20;51.00;;;;;;4999271;27;93514;-60
2022/07/16 01:23:31;;;;;;;59.42;49.85;;;24.20;51.00;;;;;;4998218;27;90499;-60
2022/07/16 01:25:57;;;;;;;61.10;49.75;;;24.20;51.00;;;;;;5005073;27;90557;-60
2022/07/16 01:28:23;;;;;;;60.15;50.05;;;24.20;51.10;;;;;;5001409;27;91981;-60
2022/07/16 01:30:50;;;;;;;58.90;49.78;;;24.20;51.00;;;;;;5011395;27;95279;-60
2022/07/16 01:33:20;;;;;;;59.13;49.70;;;24.20;50.90;;;;;;5007892;27;91819;-60
2022/07/16 01:35:45;;;;;;;60.00;49.75;;;24.20;51.00;;;;;;4998072;27;95667;-60
2022/07/16 01:38:11;;;;;;;58.58;49.60;;;24.20;51.10;;;;;;4997698;27;92427;-59
2022/07/16 01:40:37;;;;;;;58.45;49.55;;;24.20;51.00;;;;;;5006814;27;90836;-60
2022/07/16 01:43:02;;;;;;;58.60;49.70;;;24.20;51.10;;;;;;4996864;27;93219;-60
2022/07/16 01:45:28;;;;;;;59.22;49.78;;;24.10;51.10;;;;;;4994833;27;96546;-60
2022/07/16 01:47:54;;;;;;;58.92;49.78;;;24.10;51.10;;;;;;4980244;27;97578;-60
2022/07/16 01:50:19;;;;;;;59.78;49.95;;;24.10;51.20;;;;;;5012810;27;90303;-59
2022/07/16 01:52:45;;;;;;;58.92;49.92;;;24.10;51.20;;;;;;5003300;27;91089;-59
2022/07/16 01:55:11;;;;;;;58.45;49.58;;;24.10;51.30;;;;;;5000446;27;91586;-60
2022/07/16 01:57:37;;;;;;;59.97;50.05;;;24.10;51.30;;;;;;5008461;27;90989;-60
2022/07/16 02:00:03;;;;;;;62.72;50.30;;;24.10;51.30;;;;;;5004473;27;92018;-60
2022/07/16 02:02:29;;;;;;;60.63;50.00;;;24.00;51.40;;;;;;5003375;27;94861;-60
2022/07/16 02:04:55;;;;;;;59.40;49.75;;;24.10;51.40;;;;;;5011150;27;90610;-60
2022/07/16 02:07:20;;;;;;;58.72;49.75;;;24.00;51.30;;;;;;5000623;27;90103;-60
2022/07/16 02:09:46;;;;;;;59.38;49.72;;;24.00;51.50;;;;;;4999338;27;92303;-60
2022/07/16 02:12:11;;;;;;;59.58;49.72;;;24.00;51.60;;;;;;4996185;27;94842;-60
2022/07/16 02:14:37;;;;;;;60.00;50.05;;;24.00;51.50;;;;;;4997733;27;92621;-59
2022/07/16 02:17:03;;;;;;;60.20;50.03;;;24.00;51.60;;;;;;5007839;27;92231;-60
2022/07/16 02:19:29;;;;;;;58.85;49.95;;;24.00;51.60;;;;;;5003591;27;95451;-60
2022/07/16 02:21:54;;;;;;;58.45;49.70;;;24.00;51.60;;;;;;5004798;27;91939;-60
2022/07/16 02:24:20;;;;;;;58.40;49.72;;;24.00;51.60;;;;;;5000682;27;90875;-60
2022/07/16 02:26:46;;;;;;;58.83;49.92;;;24.00;51.60;;;;;;5002830;27;95341;-59
2022/07/16 02:29:11;;;;;;;59.13;49.75;;;23.90;51.60;;;;;;5002036;27;93018;-58
2022/07/16 02:31:37;;;;;;;59.13;49.85;;;23.90;51.70;;;;;;5012653;27;93531;-60
2022/07/16 02:34:03;;;;;;;60.30;49.97;;;23.90;51.70;;;;;;5000365;27;95124;-61
2022/07/16 02:36:28;;;;;;;59.53;50.05;;;23.90;51.80;;;;;;5000030;27;91702;-60
2022/07/16 02:38:54;;;;;;;59.30;49.72;;;23.90;51.60;;;;;;5004095;27;95374;-60
2022/07/16 02:41:20;;;;;;;58.90;49.67;;;23.90;51.70;;;;;;5000048;27;90809;-60
2022/07/16 02:43:45;;;;;;;59.25;49.90;;;23.90;51.80;;;;;;5008075;27;90365;-59
2022/07/16 02:46:11;;;;;;;60.28;49.95;;;23.80;51.80;;;;;;4981370;27;94278;-60
2022/07/16 02:48:36;;;;;;;58.53;49.60;;;23.80;51.90;;;;;;5002562;27;90521;-60
2022/07/16 02:51:02;;;;;;;59.28;49.80;;;23.80;51.90;;;;;;5004430;27;90322;-60
2022/07/16 02:53:28;;;;;;;59.10;49.72;;;23.80;51.90;;;;;;5010448;27;93332;-60
2022/07/16 02:55:53;;;;;;;58.60;49.80;;;23.80;52.00;;;;;;5004078;27;90411;-60
2022/07/16 02:58:19;;;;;;;58.80;49.63;;;23.80;52.00;;;;;;4996983;27;90372;-59
2022/07/16 03:00:45;;;;;;;59.88;49.65;;;23.70;52.00;;;;;;5004995;27;95045;-59
2022/07/16 03:03:10;;;;;;;59.22;49.88;;;23.70;52.00;;;;;;5002863;27;90722;-60
2022/07/16 03:05:36;;;;;;;62.45;49.72;;;23.80;52.00;;;;;;5008429;27;90276;-60
2022/07/16 03:08:02;;;;;;;59.42;49.90;;;23.70;52.00;;;;;;4999042;27;91012;-60
2022/07/16 03:10:27;;;;;;;58.22;49.60;;;23.70;52.10;;;;;;5004472;27;92003;-60
2022/07/16 03:12:54;;;;;;;59.22;50.03;;;23.70;52.10;;;;;;5001884;27;91956;-61
2022/07/16 03:15:20;;;;;;;59.05;49.95;;;23.80;52.00;;;;;;5002396;27;95733;-60
2022/07/16 03:17:45;;;;;;;58.67;49.70;;;23.70;52.00;;;;;;4997123;27;90503;-60
2022/07/16 03:20:12;;;;;;;60.00;49.90;;;23.70;52.10;;;;;;5008421;27;90119;-60
2022/07/16 03:22:45;;;;;;;58.97;49.85;;;23.70;52.10;;;;;;4999343;27;96901;-61
2022/07/16 03:25:11;;;;;;;58.80;49.75;;;23.70;52.10;;;;;;5001208;27;91011;-60
2022/07/16 03:27:37;;;;;;;59.97;49.60;;;23.60;52.10;;;;;;5008068;27;89498;-60
2022/07/16 03:30:03;;;;;;;59.67;49.85;;;23.60;52.20;;;;;;5020035;27;89874;-60
2022/07/16 03:32:29;;;;;;;59.42;49.88;;;23.70;52.20;;;;;;5006802;27;90353;-60
2022/07/16 03:34:55;;;;;;;58.42;49.60;;;23.60;52.20;;;;;;4993041;27;92348;-60
2022/07/16 03:37:20;;;;;;;59.17;49.55;;;23.60;52.20;;;;;;4997184;27;90822;-60
2022/07/16 03:39:46;;;;;;;58.45;49.78;;;23.60;52.20;;;;;;5010678;27;90983;-60
2022/07/16 03:42:11;;;;;;;59.35;49.90;;;23.60;52.20;;;;;;4990904;27;91394;-60
2022/07/16 03:44:37;;;;;;;58.58;49.60;;;23.60;52.20;;;;;;5004934;27;96338;-61
2022/07/16 03:47:03;;;;;;;58.58;49.58;;;23.60;52.20;;;;;;5003455;27;90732;-61
2022/07/16 03:49:29;;;;;;;58.72;49.35;;;23.60;52.30;;;;;;5001311;27;92557;-60
2022/07/16 03:51:54;;;;;;;59.65;49.90;;;23.60;52.30;;;;;;4997827;27;90526;-61
2022/07/16 03:54:20;;;;;;;58.25;49.53;;;23.60;52.30;;;;;;4987991;27;91973;-60
2022/07/16 03:56:46;;;;;;;58.97;49.65;;;23.50;52.20;;;;;;5007017;27;91672;-60
2022/07/16 03:59:12;;;;;;;59.50;49.60;;;23.50;52.30;;;;;;4990439;27;92474;-61
2022/07/16 04:01:39;;;;;;;58.72;49.75;;;23.50;52.40;;;;;;4993283;27;91666;-60
2022/07/16 04:04:05;;;;;;;58.72;49.83;;;23.50;52.40;;;;;;5003974;27;92705;-61
2022/07/16 04:06:30;;;;;;;59.13;49.80;;;23.50;52.40;;;;;;5006916;27;90828;-60
2022/07/16 04:08:56;;;;;;;59.00;49.72;;;23.50;52.40;;;;;;5001150;27;95217;-60
2022/07/16 04:11:22;;;;;;;58.85;49.72;;;23.50;52.30;;;;;;4997359;27;90643;-60
2022/07/16 04:13:47;;;;;;;60.22;50.00;;;23.50;52.30;;;;;;5005146;27;90009;-60
2022/07/16 04:16:13;;;;;;;58.63;49.45;;;23.60;52.40;;;;;;5010456;27;89413;-60
2022/07/16 04:18:39;;;;;;;59.70;50.15;;;23.50;52.40;;;;;;5000346;27;91374;-60
2022/07/16 04:21:05;;;;;;;59.53;49.85;;;23.50;52.40;;;;;;5001882;27;91295;-60
2022/07/16 04:23:32;;;;;;;58.42;49.75;;;23.50;52.50;;;;;;5012905;27;91025;-59
2022/07/16 04:25:59;;;;;;;58.92;49.53;;;23.50;52.40;;;;;;5000825;27;92344;-60
2022/07/16 04:28:24;;;;;;;58.58;49.60;;;23.50;52.30;;;;;;4996125;27;91391;-60
2022/07/16 04:30:50;;;;;;;59.10;49.83;;;23.50;52.30;;;;;;4999072;27;93061;-61
2022/07/16 04:33:16;;;;;;;58.95;49.58;;;23.60;52.30;;;;;;4991426;27;90494;-60
2022/07/16 04:35:41;;;;;;;59.38;49.78;;;23.50;52.20;;;;;;5007149;27;90720;-60
2022/07/16 04:38:07;;;;;;;59.75;49.63;;;23.50;52.10;;;;;;5010238;27;89940;-59
2022/07/16 04:40:33;;;;;;;60.38;49.95;;;23.50;52.40;;;;;;5000558;27;93328;-60
2022/07/16 04:42:58;;;;;;;58.60;49.90;;;23.60;52.10;;;;;;4999245;27;92095;-61
2022/07/16 04:45:24;;;;;;;59.20;49.67;;;23.60;52.10;;;;;;4988173;27;91031;-60
2022/07/16 04:47:50;;;;;;;58.75;49.75;;;23.60;52.20;;;;;;5007807;27;92174;-62
2022/07/16 04:50:15;;;;;;;59.08;49.65;;;23.60;52.20;;;;;;5007374;27;91919;-61
2022/07/16 04:52:41;;;;;;;58.92;49.85;;;23.60;52.30;;;;;;5000410;27;89866;-61
2022/07/16 04:55:08;;;;;;;58.38;49.80;;;23.60;52.30;;;;;;4998934;27;92669;-61
2022/07/16 04:57:34;;;;;;;58.53;49.75;;;23.50;52.20;;;;;;5002958;27;90785;-61
2022/07/16 04:59:59;;;;;;;58.85;49.80;;;23.60;52.30;;;;;;5005238;27;92027;-60
2022/07/16 05:05:09;;;;;;;59.25;50.05;;;23.60;52.30;;;;;;5001307;27;94307;-61
2022/07/16 05:07:36;;;;;;;58.72;49.95;;;23.60;52.30;;;;;;4993525;27;92100;-60
2022/07/16 05:10:05;;;;;;;58.85;49.75;;;23.60;52.30;;;;;;5002463;27;91687;-60
2022/07/16 05:12:30;;;;;;;58.33;49.67;;;23.60;52.20;;;;;;5008165;27;93326;-61
2022/07/16 05:14:56;;;;;;;60.65;49.85;;;23.60;52.10;;;;;;5007883;27;94809;-59
2022/07/16 05:17:22;;;;;;;59.80;50.08;;;23.60;52.10;;;;;;5002341;27;92949;-60
2022/07/16 05:19:47;;;;;;;58.65;49.75;;;23.60;52.10;;;;;;5003760;27;95404;-60
2022/07/16 05:22:13;;;;;;;58.88;49.63;;;23.70;52.10;;;;;;4997182;27;91192;-60
2022/07/16 05:24:38;;;;;;;58.58;49.92;;;23.60;51.90;;;;;;4997518;27;91811;-60
2022/07/16 05:27:04;;;;;;;58.63;49.75;;;23.70;52.00;;;;;;4997095;27;92631;-61
2022/07/16 05:29:30;;;;;;;59.05;49.95;;;23.70;51.80;;;;;;5004184;27;89765;-60
2022/07/16 05:31:56;;;;;;;59.40;49.88;;;23.70;51.90;;;;;;4990620;27;92052;-62
2022/07/16 05:34:21;;;;;;;59.60;49.92;;;23.70;51.80;;;;;;4987124;27;91674;-60
2022/07/16 05:36:47;;;;;;;58.50;50.05;;;23.70;51.80;;;;;;4992864;27;93932;-60
2022/07/16 05:39:13;;;;;;;58.30;49.65;;;23.80;51.90;;;;;;4998036;27;90884;-60
2022/07/16 05:41:38;;;;;;;60.10;50.00;;;23.80;51.80;;;;;;4998385;27;91436;-61
2022/07/16 05:44:04;;;;;;;59.35;50.13;;;23.80;51.70;;;;;;4999147;27;90980;-61
2022/07/16 05:46:29;;;;;;;58.67;49.75;;;23.70;51.70;;;;;;5012282;27;89954;-61
2022/07/16 05:48:55;;;;;;;59.65;50.00;;;23.80;51.80;;;;;;5001424;27;91084;-61
2022/07/16 05:51:21;;;;;;;60.50;49.90;;;23.80;52.00;;;;;;4996792;27;91900;-61
2022/07/16 05:53:46;;;;;;;60.35;49.67;;;23.80;51.90;;;;;;4999610;27;91450;-60
2022/07/16 05:56:12;;;;;;;64.70;49.90;;;23.70;52.00;;;;;;4999713;27;93650;-60
2022/07/16 05:58:38;;;;;;;61.65;50.20;;;23.90;52.20;;;;;;4994322;27;95144;-60
2022/07/16 06:01:03;;;;;;;60.25;50.05;;;23.90;52.10;;;;;;4995387;27;94439;-60
2022/07/16 06:03:29;;;;;;;60.33;50.03;;;23.90;52.20;;;;;;5007181;27;91550;-60
2022/07/16 06:05:54;;;;;;;67.65;50.75;;;23.90;52.10;;;;;;4999861;27;90556;-61
2022/07/16 06:08:20;;;;;;;63.47;50.72;;;23.90;53.00;;;;;;5006830;27;90977;-60
2022/07/16 06:10:46;;;;;;;65.43;51.33;;;23.90;52.70;;;;;;5002733;27;93717;-60
2022/07/16 06:13:12;;;;;;;74.80;52.55;;;23.90;52.50;;;;;;5002216;27;91215;-61
2022/07/16 06:15:37;;;;;;;73.35;53.90;;;24.00;52.90;;;;;;4972377;27;92466;-61
2022/07/16 06:18:03;;;;;;;69.45;52.92;;;23.90;53.00;;;;;;4990401;27;89806;-60
2022/07/16 06:20:29;;;;;;;72.22;53.40;;;24.00;53.00;;;;;;4992187;27;90183;-60
2022/07/16 06:22:56;;;;;;;73.00;53.45;;;24.00;52.90;;;;;;5005178;27;93835;-60
2022/07/16 06:25:23;;;;;;;78.72;54.03;;;24.00;53.10;;;;;;4998880;27;93196;-60
2022/07/16 06:27:48;;;;;;;71.20;52.97;;;24.00;52.70;;;;;;5004998;27;90401;-60
2022/07/16 06:30:14;;;;;;;78.97;54.15;;;24.10;52.70;;;;;;5013080;27;94423;-60
2022/07/16 06:32:40;;;;;;;70.85;53.75;;;24.10;52.60;;;;;;4984826;27;90360;-60
2022/07/16 06:35:07;;;;;;;69.07;53.30;;;24.10;52.60;;;;;;5003221;27;91000;-60
2022/07/16 06:37:32;;;;;;;70.05;53.65;;;24.10;52.50;;;;;;4999366;27;93959;-60
2022/07/16 06:39:58;;;;;;;74.85;54.13;;;24.10;52.50;;;;;;5010881;27;91059;-60
2022/07/16 06:42:23;;;;;;;74.22;54.08;;;24.10;52.50;;;;;;5003986;27;91150;-60
2022/07/16 06:44:49;;;;;;;77.65;54.03;;;24.10;52.50;;;;;;5004978;27;90936;-60
2022/07/16 06:47:15;;;;;;;75.28;54.15;;;24.10;52.40;;;;;;4997054;27;90278;-59
2022/07/16 06:49:40;;;;;;;68.22;53.60;;;24.10;52.40;;;;;;4994068;27;92857;-60
2022/07/16 06:52:07;;;;;;;74.15;54.42;;;24.10;52.40;;;;;;5000070;27;90362;-61
2022/07/16 06:54:32;;;;;;;77.22;55.05;;;24.20;52.50;;;;;;5001489;27;91656;-60
2022/07/16 06:56:58;;;;;;;73.80;54.08;;;24.20;52.40;;;;;;5005499;27;91123;-60
2022/07/16 06:59:24;;;;;;;69.05;54.50;;;24.20;52.40;;;;;;4989836;27;90394;-60
2022/07/16 07:01:49;;;;;;;74.72;54.35;;;24.20;52.40;;;;;;5000961;27;92468;-59
2022/07/16 07:04:15;;;;;;;75.13;55.42;;;24.20;52.50;;;;;;5015234;27;90077;-60
2022/07/16 07:06:41;;;;;;;74.40;55.00;;;24.20;52.50;;;;;;5002308;27;90531;-60
2022/07/16 07:09:06;;;;;;;70.28;54.67;;;24.20;52.50;;;;;;5008752;27;95347;-60
2022/07/16 07:11:32;;;;;;;77.15;55.50;;;24.30;52.40;;;;;;5013394;27;90544;-64
2022/07/16 07:13:58;;;;;;;78.85;55.38;;;24.30;52.90;;;;;;4971256;27;93237;-59
2022/07/16 07:16:23;;;;;;;74.97;54.75;;;24.30;52.80;;;;;;5006697;27;92887;-60
2022/07/16 07:18:49;;;;;;;75.05;54.88;;;24.30;53.00;;;;;;5005896;27;90284;-61
2022/07/16 07:21:14;;;;;;;74.72;55.10;;;24.30;52.90;;;;;;5013407;27;90189;-63
2022/07/16 07:23:40;;;;;;;74.47;54.72;;;24.30;53.20;;;;;;5004398;27;90532;-63
2022/07/16 07:26:06;;;;;;;66.63;52.25;;;24.40;53.60;;;;;;4990757;27;91076;-54
2022/07/16 07:28:32;;;;;;;62.42;51.60;;;24.40;53.20;;;;;;4996644;27;93348;-55
2022/07/16 07:30:57;;;;;;;65.70;51.88;;;24.10;53.00;;;;;;4993645;27;89869;-56
2022/07/16 07:33:24;;;;;;;61.60;51.35;;;24.00;53.60;;;;;;5008946;27;95211;-54
2022/07/16 07:35:50;;;;;;;63.75;51.33;;;23.90;53.60;;;;;;4977665;27;91023;-57
2022/07/16 07:38:16;;;;;;;67.38;51.45;;;23.70;53.80;;;;;;4995004;27;92956;-56
2022/07/16 07:40:42;;;;;;;60.97;50.75;;;23.60;54.20;;;;;;5006915;27;90328;-57
2022/07/16 07:43:08;;;;;;;62.67;50.65;;;23.50;54.70;;;;;;5001606;27;90909;-57
2022/07/16 07:45:33;;;;;;;60.65;50.85;;;23.60;54.60;;;;;;5004026;27;91248;-57
2022/07/16 07:47:59;;;;;;;60.50;50.30;;;23.50;54.80;;;;;;5006482;27;91810;-57
2022/07/16 07:50:25;;;;;;;60.58;50.97;;;23.50;54.90;;;;;;5000307;27;90729;-54
2022/07/16 07:52:51;;;;;;;62.10;50.53;;;23.60;54.70;;;;;;4987328;27;90808;-57
2022/07/16 07:55:16;;;;;;;61.25;50.55;;;23.50;54.80;;;;;;5004073;27;90480;-56
2022/07/16 07:57:42;;;;;;;60.72;50.55;;;23.50;54.80;;;;;;5006329;27;91387;-57
2022/07/16 08:00:09;;;;;;;61.70;50.53;;;23.40;54.90;;;;;;5012826;27;90732;-54
2022/07/16 08:02:35;;;;;;;61.67;50.45;;;23.40;55.10;;;;;;5008278;27;93316;-58
2022/07/16 08:05:02;;;;;;;63.10;50.40;;;23.50;55.40;;;;;;4989880;27;90167;-57
2022/07/16 08:07:28;;;;;;;62.35;50.85;;;23.50;55.90;;;;;;5013929;27;89978;-54
2022/07/16 08:09:54;;;;;;;62.92;50.67;;;23.60;55.60;;;;;;5003998;27;90446;-57
2022/07/16 08:12:20;;;;;;;61.80;50.47;;;23.50;55.50;;;;;;4995889;27;91899;-55
2022/07/16 08:14:45;;;;;;;63.25;50.53;;;23.50;54.70;;;;;;4997942;27;91731;-54
2022/07/16 08:17:11;;;;;;;64.32;50.67;;;23.60;55.00;;;;;;5007395;27;91226;-57
2022/07/16 08:19:36;;;;;;;63.80;50.53;;;23.70;55.10;;;;;;4993393;27;90853;-57
2022/07/16 08:22:02;;;;;;;61.25;50.67;;;23.70;54.80;;;;;;4992967;27;91799;-56
2022/07/16 08:27:13;;;;;;;62.13;50.50;;;23.70;54.70;;;;;;5003293;27;91444;-57
2022/07/16 08:29:39;;;;;;;60.35;50.65;;;23.70;54.10;;;;;;5000927;27;90081;-57
2022/07/16 08:32:05;;;;;;;62.03;50.33;;;23.70;54.40;;;;;;4992318;27;92719;-57
2022/07/16 08:34:31;;;;;;;63.10;50.63;;;23.50;53.40;;;;;;4997204;27;95044;-56
2022/07/16 08:36:57;;;;;;;60.58;50.45;;;23.50;54.60;;;;;;4999797;27;90142;-57
2022/07/16 08:39:22;;;;;;;59.85;50.45;;;23.50;54.50;;;;;;4994995;27;93464;-55
2022/07/16 08:41:49;;;;;;;62.40;50.78;;;23.60;54.70;;;;;;5001294;27;92328;-53
2022/07/16 08:44:15;;;;;;;62.13;50.92;;;23.60;54.20;;;;;;5005874;27;91143;-56
2022/07/16 08:46:42;;;;;;;62.33;50.67;;;23.70;54.40;;;;;;5000639;27;90238;-56
2022/07/16 08:49:08;;;;;;;60.60;50.85;;;23.60;54.60;;;;;;4997309;27;92221;-58
2022/07/16 08:51:36;;;;;;;60.17;50.50;;;23.60;55.10;;;;;;5005419;27;91235;-58
2022/07/16 08:54:09;;;;;;;61.08;50.75;;;23.50;55.20;;;;;;5000269;27;96539;-56
2022/07/16 08:56:35;;;;;;;62.05;50.50;;;23.50;55.10;;;;;;4993943;27;96615;-58
2022/07/16 08:59:02;;;;;;;62.20;50.42;;;23.50;55.40;;;;;;4990607;27;90819;-55
2022/07/16 09:01:29;;;;;;;60.08;50.22;;;23.70;55.00;;;;;;4977517;27;91658;-58
2022/07/16 09:03:59;;;;;;;61.30;50.15;;;23.70;55.00;;;;;;5008248;27;90740;-58
2022/07/16 09:06:26;;;;;;;60.05;49.92;;;23.70;54.10;;;;;;4988068;27;90342;-56
2022/07/16 09:08:52;;;;;;;60.22;50.13;;;23.80;53.80;;;;;;4985327;27;92208;-58
2022/07/16 09:11:25;;;;;;;59.90;50.25;;;23.80;53.10;;;;;;4989894;27;90001;-58
2022/07/16 09:14:10;;;;;;;64.18;50.20;;;23.80;53.10;;;;;;5001680;27;90235;-58
2022/07/16 09:16:37;;;;;;;60.78;50.25;;;23.80;53.00;;;;;;4989661;27;90678;-57
2022/07/16 09:19:18;;;;;;;61.38;50.33;;;23.90;53.00;;;;;;5002970;27;91088;-57
2022/07/16 09:22:13;;;;;;;60.67;50.33;;;23.90;53.20;;;;;;5010043;27;90498;-53
2022/07/16 09:24:48;;;;;;;62.58;50.33;;;23.90;53.00;;;;;;5006034;27;95286;-55
2022/07/16 09:27:22;;;;;;;60.92;50.20;;;23.80;53.00;;;;;;5002071;27;90182;-58
2022/07/16 09:29:51;;;;;;;60.53;50.28;;;23.80;52.80;;;;;;5004885;27;90679;-56
2022/07/16 09:32:26;;;;;;;62.13;50.22;;;23.80;53.60;;;;;;4991253;27;90858;-55
2022/07/16 09:35:13;;;;;;;59.65;49.85;;;23.90;52.50;;;;;;4998985;27;93651;-56
2022/07/16 09:37:45;;;;;;;60.35;50.03;;;23.80;52.30;;;;;;5001946;27;92111;-58
2022/07/16 09:40:12;;;;;;;60.47;50.08;;;23.80;53.10;;;;;;5004146;27;90071;-58
2022/07/16 09:42:39;;;;;;;60.42;50.15;;;23.90;53.10;;;;;;5007141;27;91649;-57
2022/07/16 09:45:06;;;;;;;62.70;50.72;;;23.90;52.40;;;;;;4984547;27;93446;-57
2022/07/16 09:47:32;;;;;;;60.00;50.22;;;23.90;53.10;;;;;;5001706;27;91165;-58
2022/07/16 09:49:58;;;;;;;59.95;49.92;;;24.00;52.70;;;;;;5006296;27;91866;-58
2022/07/16 09:52:31;;;;;;;60.55;50.05;;;24.00;52.10;;;;;;4993369;27;91800;-58
2022/07/16 09:54:58;;;;;;;62.75;50.05;;;24.00;50.80;;;;;;5006020;27;94088;-57
2022/07/16 09:57:26;;;;;;;60.80;50.10;;;24.00;51.40;;;;;;4996112;27;90741;-57
2022/07/16 09:59:53;;;;;;;60.70;50.25;;;24.00;51.70;;;;;;5006907;27;89892;-56
2022/07/16 10:02:19;;;;;;;60.08;49.92;;;24.10;52.40;;;;;;5009786;27;91380;-57
2022/07/16 10:04:44;;;;;;;60.80;50.28;;;24.10;51.90;;;;;;4996377;27;92618;-54
2022/07/16 10:07:10;;;;;;;60.17;50.35;;;24.20;51.80;;;;;;4997421;27;91019;-56
2022/07/16 10:09:36;;;;;;;60.30;50.10;;;24.10;51.60;;;;;;5003449;27;90412;-58
2022/07/16 10:12:06;;;;;;;61.20;50.33;;;24.20;51.40;;;;;;5001822;27;92266;-55
2022/07/16 10:14:36;;;;;;;60.42;50.33;;;24.20;50.50;;;;;;4999022;27;91472;-58
2022/07/16 10:17:15;;;;;;;60.07;50.40;;;24.20;50.60;;;;;;4995118;27;90641;-55
2022/07/16 10:19:42;;;;;;;60.63;50.17;;;24.20;51.40;;;;;;5001935;27;91387;-58
2022/07/16 10:22:20;;;;;;;61.50;50.30;;;24.30;51.70;;;;;;5005008;27;91066;-56
2022/07/16 10:24:53;;;;;;;61.42;50.58;;;24.40;51.50;;;;;;5004156;27;92145;-57
2022/07/16 10:27:21;;;;;;;61.00;50.42;;;24.50;51.20;;;;;;4997234;27;93739;-57
2022/07/16 10:29:47;;;;;;;61.88;50.45;;;24.50;50.60;;;;;;5005800;27;90798;-57
2022/07/16 10:32:28;;;;;;;61.80;50.50;;;24.50;50.50;;;;;;4993347;27;91669;-57
2022/07/16 10:34:55;;;;;;;63.03;50.70;;;24.50;51.00;;;;;;4977892;27;92168;-57
2022/07/16 10:37:31;;;;;;;60.65;50.50;;;24.50;50.70;;;;;;5000746;27;89686;-58
2022/07/16 10:39:59;;;;;;;61.63;50.78;;;24.60;49.90;;;;;;5002285;27;90603;-55
2022/07/16 10:42:24;;;;;;;61.88;50.55;;;24.50;49.60;;;;;;4999025;27;90794;-58
2022/07/16 10:44:50;;;;;;;61.70;50.60;;;24.50;49.60;;;;;;5006752;27;91973;-58
2022/07/16 10:47:17;;;;;;;62.38;50.63;;;24.60;48.60;;;;;;5004358;27;90138;-57
2022/07/16 10:49:44;;;;;;;62.40;50.45;;;24.50;47.90;;;;;;5006451;27;90651;-54
2022/07/16 10:52:10;;;;;;;61.08;50.55;;;24.50;50.40;;;;;;5006903;27;91147;-58
2022/07/16 10:54:38;;;;;;;62.60;50.72;;;24.50;51.00;;;;;;5003381;27;90151;-58
2022/07/16 10:57:09;;;;;;;61.15;50.55;;;24.60;49.50;;;;;;5000975;27;96179;-57
2022/07/16 10:59:37;;;;;;;60.67;50.47;;;24.70;48.70;;;;;;4994958;27;90700;-57
2022/07/16 11:02:07;;;;;;;60.55;50.53;;;24.60;47.50;;;;;;5011815;27;90890;-57
2022/07/16 11:04:34;;;;;;;63.47;50.60;;;24.60;48.40;;;;;;5002630;27;90471;-57
2022/07/16 11:07:03;;;;;;;60.85;50.67;;;24.60;50.40;;;;;;5002600;27;89887;-57
2022/07/16 11:09:33;;;;;;;62.47;50.92;;;24.70;49.70;;;;;;5006278;27;90626;-57
2022/07/16 11:12:06;;;;;;;61.92;50.75;;;24.60;50.50;;;;;;5005936;27;96689;-56
2022/07/16 11:14:32;;;;;;;63.03;50.90;;;24.70;50.40;;;;;;4999222;27;95073;-58
2022/07/16 11:16:58;;;;;;;63.55;50.75;;;24.80;49.70;;;;;;5004316;27;95419;-57
2022/07/16 11:19:24;;;;;;;60.72;50.42;;;24.80;50.00;;;;;;5000881;27;95591;-57
2022/07/16 11:21:58;;;;;;;62.38;50.75;;;24.90;49.70;;;;;;5006811;27;96578;-56
2022/07/16 11:24:26;;;;;;;63.10;50.80;;;24.90;49.80;;;;;;4998522;27;102982;-57
2022/07/16 11:26:52;;;;;;;62.13;50.72;;;24.80;50.00;;;;;;4993972;27;95991;-57
2022/07/16 11:29:20;;;;;;;61.35;50.75;;;24.90;49.80;;;;;;4999642;27;95608;-58
2022/07/16 11:31:47;;;;;;;61.55;50.72;;;24.90;49.80;;;;;;4997197;27;96635;-57
2022/07/16 11:34:13;;;;;;;63.38;51.22;;;24.90;49.80;;;;;;4997004;27;99753;-57
2022/07/16 11:36:44;;;;;;;61.03;50.83;;;25.00;49.70;;;;;;4994466;27;95345;-58
2022/07/16 11:39:14;;;;;;;63.00;51.15;;;25.00;49.70;;;;;;4998503;27;94881;-58
2022/07/16 11:41:43;;;;;;;61.20;50.80;;;25.10;47.30;;;;;;4991415;27;96891;-57
2022/07/16 11:44:17;;;;;;;62.17;51.15;;;25.10;48.90;;;;;;4980694;27;98947;-56
2022/07/16 11:46:49;;;;;;;63.97;51.22;;;25.10;49.90;;;;;;4984418;27;103678;-56
2022/07/16 11:49:29;;;;;;;63.13;51.35;;;25.20;50.10;;;;;;4961661;27;100324;-54
2022/07/16 11:51:58;;;;;;;65.38;51.67;;;25.30;50.00;;;;;;4974157;27;97990;-57
2022/07/16 11:54:25;;;;;;;64.30;51.40;;;25.40;50.00;;;;;;4977575;27;99913;-54
2022/07/16 11:56:51;;;;;;;63.67;51.72;;;25.40;50.00;;;;;;4979890;27;95697;-60
2022/07/16 11:59:28;;;;;;;62.58;51.33;;;25.40;50.00;;;;;;4972869;27;96122;-59
2022/07/16 12:02:05;;;;;;;64.13;51.78;;;25.50;49.10;;;;;;4956867;27;94765;-60
2022/07/16 12:04:38;;;;;;;64.07;51.70;;;25.60;48.50;;;;;;4960662;27;95471;-60
2022/07/16 12:07:06;;;;;;;64.30;51.97;;;25.50;49.30;;;;;;4978220;27;95980;-59
2022/07/16 12:09:53;;;;;;;65.03;52.38;;;25.40;49.50;;;;;;4970419;27;97381;-56
2022/07/16 12:12:26;;;;;;;64.78;52.10;;;25.40;49.60;;;;;;4957853;27;98332;-57
2022/07/16 12:14:56;;;;;;;65.82;52.00;;;25.50;49.30;;;;;;4959577;27;96794;-57
2022/07/16 12:17:31;;;;;;;67.10;52.25;;;25.60;48.30;;;;;;4952862;27;101885;-59
2022/07/16 12:20:12;;;;;;;63.13;51.53;;;25.60;48.00;;;;;;4965750;27;97063;-56
2022/07/16 12:22:56;;;;;;;66.10;52.05;;;25.60;46.80;;;;;;4973394;27;98531;-58
2022/07/16 12:25:40;;;;;;;64.30;51.95;;;25.60;47.80;;;;;;4967003;27;99391;-59
2022/07/16 12:28:22;;;;;;;65.53;52.13;;;25.60;48.00;;;;;;4968081;27;98551;-59
2022/07/16 12:30:53;;;;;;;66.82;52.35;;;25.40;49.60;;;;;;4969481;27;95415;-59
2022/07/16 12:33:20;;;;;;;65.25;52.03;;;25.50;49.40;;;;;;4960597;27;96065;-58